Time;durP1;ratioP1;P1;durP2;ratioP2;P2;SDS_P1;SDS_P2;PMS_P1;PMS_P2;Temp;Humidity;BMP_temperature;BMP_pressure;BME280_temperature;BME280_humidity;BME280_pressure;Samples;Min_cycle;Max_cycle;Signal;HPM_P1;HPM_P2
2021/12/08 00:01:09;;;;;;;;;;;;;;;4.46;100.00;97040.03;5012314;28;20366;-75
2021/12/08 00:03:35;;;;;;;;;;;;;;;4.32;100.00;97024.47;5011862;28;19918;-75
2021/12/08 00:06:00;;;;;;;;;;;;;;;4.36;100.00;97023.47;5009633;28;20502;-74
2021/12/08 00:08:28;;;;;;;;;;;;;;;4.22;100.00;96998.53;5013952;28;20000;-75
2021/12/08 00:13:23;;;;;;;;;;;;;;;4.09;100.00;96972.69;5012217;28;19980;-75
2021/12/08 00:15:50;;;;;;;;;;;;;;;4.20;100.00;96995.19;4988205;28;20267;-72
2021/12/08 00:18:22;;;;;;;;;;;;;;;4.29;100.00;96991.44;4992198;28;19928;-73
2021/12/08 00:20:47;;;;;;;;;;;;;;;4.31;100.00;96987.13;4972899;28;19921;-74
2021/12/08 00:23:13;;;;;;;;;;;;;;;4.34;100.00;97023.50;4989014;28;20445;-74
2021/12/08 00:25:38;;;;;;;;;;;;;;;4.22;100.00;97003.63;5012531;28;19921;-74
2021/12/08 00:28:05;;;;;;;;;;;;;;;4.38;100.00;96986.00;4992970;28;19925;-74
2021/12/08 00:30:31;;;;;;;;;;;;;;;4.11;100.00;96988.72;4998631;28;19932;-74
2021/12/08 00:32:58;;;;;;;;;;;;;;;4.13;100.00;96989.50;5016372;28;19917;-74
2021/12/08 00:35:24;;;;;;;;;;;;;;;4.16;100.00;96997.03;5011615;28;19924;-75
2021/12/08 00:37:49;;;;;;;;;;;;;;;4.14;100.00;96993.69;5011498;28;19921;-75
2021/12/08 00:40:15;;;;;;;;;;;;;;;4.00;100.00;97003.59;5012149;28;19928;-74
2021/12/08 00:42:41;;;;;;;;;;;;;;;4.45;100.00;97001.84;4988975;28;19957;-73
2021/12/08 00:45:07;;;;;;;;;;;;;;;4.28;100.00;96985.53;4988619;28;19932;-74
2021/12/08 00:47:32;;;;;;;;;;;;;;;4.34;100.00;96997.22;5013542;28;19913;-74
2021/12/08 00:49:57;;;;;;;;;;;;;;;4.30;100.00;97010.94;5012346;28;20324;-75
2021/12/08 00:52:28;;;;;;;;;;;;;;;4.19;100.00;96988.44;5012078;28;19924;-73
2021/12/08 00:54:53;;;;;;;;;;;;;;;3.98;100.00;96972.25;5009792;28;19921;-74
2021/12/08 00:57:19;;;;;;;;;;;;;;;4.05;100.00;96995.78;4987499;28;19928;-73
2021/12/08 00:59:44;;;;;;;;;;;;;;;3.97;100.00;96999.44;5014066;28;20589;-75
2021/12/08 01:02:09;;;;;;;;;;;;;;;4.26;100.00;97024.69;4972649;28;19970;-75
2021/12/08 01:04:35;;;;;;;;;;;;;;;4.25;100.00;97018.78;5011492;28;19921;-75
2021/12/08 01:07:01;;;;;;;;;;;;;;;4.07;100.00;97025.41;4987243;28;19917;-75
2021/12/08 01:09:26;;;;;;;;;;;;;;;3.97;100.00;97024.09;4988129;28;19953;-75
2021/12/08 01:11:51;;;;;;;;;;;;;;;4.24;100.00;97037.47;5012792;28;20375;-73
2021/12/08 01:14:17;;;;;;;;;;;;;;;3.93;100.00;97042.91;4987755;28;20260;-74
2021/12/08 01:16:43;;;;;;;;;;;;;;;4.23;100.00;97047.75;4971737;28;20399;-73
2021/12/08 01:19:08;;;;;;;;;;;;;;;3.93;100.00;97058.19;5012377;28;20004;-75
2021/12/08 01:21:34;;;;;;;;;;;;;;;3.97;100.00;97067.38;5013349;28;19924;-75
2021/12/08 01:24:00;;;;;;;;;;;;;;;4.10;100.00;97052.47;5013294;28;20330;-75
2021/12/08 01:26:26;;;;;;;;;;;;;;;3.97;100.00;97059.75;5010990;28;20016;-72
2021/12/08 01:28:55;;;;;;;;;;;;;;;3.80;100.00;97067.97;5009059;28;19929;-75
2021/12/08 01:31:21;;;;;;;;;;;;;;;4.06;100.00;97072.16;5011485;28;20012;-75
2021/12/08 01:33:46;;;;;;;;;;;;;;;4.24;100.00;97060.41;5009214;28;20063;-75
2021/12/08 01:36:12;;;;;;;;;;;;;;;3.96;100.00;97083.53;5011890;28;20333;-74
2021/12/08 01:38:37;;;;;;;;;;;;;;;3.70;100.00;97062.41;5010297;28;19947;-73
2021/12/08 01:41:03;;;;;;;;;;;;;;;3.85;100.00;97073.72;5010492;28;19928;-74
2021/12/08 01:43:29;;;;;;;;;;;;;;;3.85;100.00;97065.28;5010836;28;19924;-74
2021/12/08 01:46:06;;;;;;;;;;;;;;;4.09;100.00;97084.75;5006005;28;19987;-74
2021/12/08 01:48:33;;;;;;;;;;;;;;;3.81;100.00;97081.53;4986760;28;19972;-74
2021/12/08 01:51:00;;;;;;;;;;;;;;;3.95;100.00;97099.72;4986596;28;19936;-73
2021/12/08 01:53:26;;;;;;;;;;;;;;;3.63;100.00;97101.69;5011992;28;19917;-74
2021/12/08 01:55:52;;;;;;;;;;;;;;;3.78;100.00;97096.03;5011873;28;19924;-74
2021/12/08 01:58:17;;;;;;;;;;;;;;;3.71;100.00;97106.50;4978242;28;19928;-75
2021/12/08 02:00:47;;;;;;;;;;;;;;;3.86;100.00;97103.41;4987051;28;19994;-75
2021/12/08 02:03:13;;;;;;;;;;;;;;;3.66;100.00;97091.38;4979849;28;19921;-73
2021/12/08 02:05:38;;;;;;;;;;;;;;;3.71;100.00;97074.22;5014904;28;19921;-74
2021/12/08 02:08:04;;;;;;;;;;;;;;;3.71;100.00;97084.41;5013271;28;19925;-75
2021/12/08 02:10:30;;;;;;;;;;;;;;;3.93;100.00;97096.41;4988189;28;19932;-74
2021/12/08 02:12:55;;;;;;;;;;;;;;;3.83;100.00;97097.59;5009696;28;19920;-75
2021/12/08 02:15:21;;;;;;;;;;;;;;;3.97;100.00;97100.50;4988176;28;19975;-75
2021/12/08 02:17:48;;;;;;;;;;;;;;;3.88;100.00;97103.38;4995655;28;19929;-74
2021/12/08 02:20:13;;;;;;;;;;;;;;;3.92;100.00;97097.25;4992046;28;19925;-74
2021/12/08 02:22:39;;;;;;;;;;;;;;;3.77;100.00;97104.56;5010217;28;20286;-74
2021/12/08 02:25:05;;;;;;;;;;;;;;;3.89;100.00;97110.13;5009128;28;19920;-75
2021/12/08 02:27:33;;;;;;;;;;;;;;;3.89;100.00;97108.38;4970128;28;20016;-75
2021/12/08 02:30:06;;;;;;;;;;;;;;;4.06;100.00;97104.41;4987837;28;19917;-75
2021/12/08 02:46:46;;;;;;;;;;;;;;;4.21;100.00;97097.94;4955490;28;19996;-73
2021/12/08 02:49:11;;;;;;;;;;;;;;;4.24;100.00;97106.28;4969060;28;20012;-74
2021/12/08 02:51:36;;;;;;;;;;;;;;;4.18;100.00;97099.69;4954022;28;20040;-75
2021/12/08 02:54:02;;;;;;;;;;;;;;;3.89;100.00;97097.38;4971370;28;19918;-74
2021/12/08 02:56:30;;;;;;;;;;;;;;;4.01;100.00;97112.22;4947426;28;19922;-73
2021/12/08 02:58:55;;;;;;;;;;;;;;;3.87;100.00;97112.72;4952807;28;19929;-74
2021/12/08 03:01:21;;;;;;;;;;;;;;;3.89;100.00;97112.66;4970796;28;19918;-75
2021/12/08 03:03:46;;;;;;;;;;;;;;;3.96;100.00;97112.38;4969120;28;20163;-75
2021/12/08 03:06:12;;;;;;;;;;;;;;;4.18;100.00;97109.88;4967240;28;19929;-75
2021/12/08 03:08:38;;;;;;;;;;;;;;;4.04;100.00;97106.16;4954876;28;19922;-74
2021/12/08 03:11:03;;;;;;;;;;;;;;;4.00;100.00;97118.19;4976148;28;19920;-74
2021/12/08 03:13:32;;;;;;;;;;;;;;;3.83;100.00;97103.53;5009990;28;19921;-74
2021/12/08 03:15:58;;;;;;;;;;;;;;;3.93;100.00;97114.22;4963800;28;19971;-74
2021/12/08 03:18:31;;;;;;;;;;;;;;;3.98;100.00;97117.41;4994175;28;19964;-73
2021/12/08 03:20:57;;;;;;;;;;;;;;;4.00;100.00;97115.66;5013840;28;20291;-74
2021/12/08 03:23:28;;;;;;;;;;;;;;;4.21;100.00;97123.41;4974552;28;19917;-74
2021/12/08 03:25:59;;;;;;;;;;;;;;;4.36;100.00;97123.66;5011148;28;19929;-74
2021/12/08 03:28:29;;;;;;;;;;;;;;;4.17;100.00;97118.44;5015122;28;19922;-75
2021/12/08 03:31:09;;;;;;;;;;;;;;;4.27;100.00;97124.00;5013376;28;19917;-75
2021/12/08 03:33:34;;;;;;;;;;;;;;;4.11;100.00;97122.91;5012712;28;19917;-74
2021/12/08 03:36:00;;;;;;;;;;;;;;;4.20;100.00;97125.13;5014158;28;19928;-75
2021/12/08 03:38:26;;;;;;;;;;;;;;;4.19;100.00;97136.19;4982445;28;20004;-74
2021/12/08 03:40:52;;;;;;;;;;;;;;;4.23;100.00;97147.13;5012758;28;19924;-74
2021/12/08 03:43:17;;;;;;;;;;;;;;;4.59;100.00;97145.75;5012712;28;20422;-74
2021/12/08 03:45:46;;;;;;;;;;;;;;;4.81;100.00;97143.22;4996922;28;20047;-74
2021/12/08 03:48:18;;;;;;;;;;;;;;;4.52;100.00;97134.13;4990578;28;19918;-74
2021/12/08 03:50:44;;;;;;;;;;;;;;;4.61;100.00;97141.41;4995206;28;20398;-74
2021/12/08 03:53:16;;;;;;;;;;;;;;;4.75;100.00;97147.72;5012541;28;19928;-74
2021/12/08 03:55:42;;;;;;;;;;;;;;;4.82;100.00;97146.59;4989895;28;20371;-73
2021/12/08 03:58:07;;;;;;;;;;;;;;;4.66;100.00;97140.41;5012652;28;19925;-74
2021/12/08 04:00:32;;;;;;;;;;;;;;;4.76;100.00;97136.63;5015717;28;19921;-74
2021/12/08 04:02:58;;;;;;;;;;;;;;;4.55;100.00;97135.72;5012106;28;20394;-74
2021/12/08 04:05:39;;;;;;;;;;;;;;;4.52;100.00;97143.50;5013343;28;20055;-74
2021/12/08 04:08:14;;;;;;;;;;;;;;;4.59;100.00;97130.44;5014068;28;19974;-75
2021/12/08 04:10:40;;;;;;;;;;;;;;;4.44;100.00;97141.22;5014127;28;20375;-74
2021/12/08 04:13:05;;;;;;;;;;;;;;;4.59;100.00;97140.66;4990790;28;19928;-75
2021/12/08 04:15:31;;;;;;;;;;;;;;;5.10;100.00;97142.94;5007874;28;19921;-75
2021/12/08 04:17:56;;;;;;;;;;;;;;;5.03;100.00;97132.97;4988923;28;19921;-74
2021/12/08 04:20:32;;;;;;;;;;;;;;;4.88;100.00;97135.31;5012178;28;19975;-74
2021/12/08 04:22:57;;;;;;;;;;;;;;;4.70;100.00;97131.75;4990256;28;19951;-73
2021/12/08 04:25:25;;;;;;;;;;;;;;;4.87;100.00;97131.09;5011636;28;20703;-74
2021/12/08 04:27:51;;;;;;;;;;;;;;;4.52;100.00;97126.47;5011681;28;19926;-75
2021/12/08 04:30:19;;;;;;;;;;;;;;;4.50;100.00;97132.53;4988805;28;19921;-74
2021/12/08 04:32:44;;;;;;;;;;;;;;;4.51;100.00;97129.91;5014561;28;20375;-73
2021/12/08 04:35:10;;;;;;;;;;;;;;;4.74;100.00;97140.94;5011408;28;19928;-74
2021/12/08 04:37:37;;;;;;;;;;;;;;;4.88;100.00;97148.91;5011367;28;19936;-74
2021/12/08 04:43:21;;;;;;;;;;;;;;;4.93;100.00;97158.94;5011437;28;19984;-75
2021/12/08 04:46:09;;;;;;;;;;;;;;;4.77;100.00;97153.59;5013509;28;20025;-75
2021/12/08 05:01:44;;;;;;;;;;;;;;;4.71;100.00;97148.72;4991112;28;19963;-73
2021/12/08 05:08:00;;;;;;;;;;;;;;;4.51;100.00;97150.28;4988222;28;20232;-74
2021/12/08 05:09:49;;;;;;;;;;;;;;;4.89;100.00;97148.00;4996755;28;19955;-74
2021/12/08 05:12:34;;;;;;;;;;;;;;;4.58;100.00;97133.91;5005963;28;20367;-75
2021/12/08 05:15:04;;;;;;;;;;;;;;;4.46;100.00;97133.53;4986843;28;19918;-73
2021/12/08 05:17:35;;;;;;;;;;;;;;;4.86;100.00;97130.28;4999637;28;19929;-74
2021/12/08 05:20:03;;;;;;;;;;;;;;;4.95;100.00;97132.47;4986482;28;19960;-73
2021/12/08 05:22:31;;;;;;;;;;;;;;;4.64;100.00;97132.00;4987244;28;19957;-74
2021/12/08 05:24:58;;;;;;;;;;;;;;;4.79;100.00;97131.41;4987113;28;19925;-73
2021/12/08 05:27:26;;;;;;;;;;;;;;;4.75;100.00;97135.78;5000579;28;19940;-74
2021/12/08 05:29:56;;;;;;;;;;;;;;;4.45;100.00;97142.88;4986558;28;20378;-74
2021/12/08 05:32:22;;;;;;;;;;;;;;;4.80;100.00;97144.09;5004670;28;20375;-74
2021/12/08 05:34:47;;;;;;;;;;;;;;;4.56;100.00;97153.53;5003964;28;19924;-73
2021/12/08 05:37:13;;;;;;;;;;;;;;;4.89;100.00;97165.03;4971029;28;19921;-74
2021/12/08 05:39:39;;;;;;;;;;;;;;;4.68;100.00;97164.16;5002852;28;19933;-74
2021/12/08 05:42:06;;;;;;;;;;;;;;;4.82;100.00;97151.69;5003340;28;19976;-74
2021/12/08 05:44:32;;;;;;;;;;;;;;;4.89;100.00;97153.09;5002639;28;19928;-75
2021/12/08 05:46:58;;;;;;;;;;;;;;;4.56;100.00;97152.66;4985891;28;19913;-73
2021/12/08 05:49:24;;;;;;;;;;;;;;;4.90;100.00;97153.94;5000964;28;19983;-74
2021/12/08 05:51:51;;;;;;;;;;;;;;;4.76;100.00;97157.00;4979179;28;20019;-74
2021/12/08 05:54:19;;;;;;;;;;;;;;;4.87;100.00;97159.97;5007367;28;20383;-74
2021/12/08 05:56:44;;;;;;;;;;;;;;;4.75;100.00;97165.56;5007611;28;19921;-74
2021/12/08 05:59:10;;;;;;;;;;;;;;;4.76;100.00;97162.13;5008818;28;20696;-74
2021/12/08 06:01:40;;;;;;;;;;;;;;;4.71;100.00;97164.00;5011908;28;19917;-74
2021/12/08 06:04:06;;;;;;;;;;;;;;;4.61;100.00;97173.75;4991069;28;20313;-74
2021/12/08 06:06:32;;;;;;;;;;;;;;;4.90;100.00;97170.06;4996234;28;19918;-74
2021/12/08 06:08:57;;;;;;;;;;;;;;;4.82;100.00;97172.09;4993179;28;19980;-74
2021/12/08 06:11:25;;;;;;;;;;;;;;;4.85;100.00;97166.84;5008550;28;19913;-74
2021/12/08 06:13:50;;;;;;;;;;;;;;;4.61;100.00;97169.47;5012831;28;19924;-74
2021/12/08 06:16:17;;;;;;;;;;;;;;;4.95;100.00;97170.72;4995587;28;20450;-74
2021/12/08 06:18:44;;;;;;;;;;;;;;;4.77;100.00;97174.81;5012956;28;20024;-74
2021/12/08 06:21:11;;;;;;;;;;;;;;;4.74;100.00;97169.00;5009906;28;19940;-75
2021/12/08 06:23:39;;;;;;;;;;;;;;;4.79;100.00;97177.31;5009512;28;19926;-74
2021/12/08 06:26:05;;;;;;;;;;;;;;;4.83;100.00;97171.19;4977980;28;19960;-73
2021/12/08 06:28:31;;;;;;;;;;;;;;;4.87;100.00;97177.00;5013088;28;19921;-72
2021/12/08 06:30:57;;;;;;;;;;;;;;;4.65;100.00;97177.81;4992563;28;20315;-74
2021/12/08 06:33:22;;;;;;;;;;;;;;;5.04;100.00;97187.41;5012396;28;20117;-74
2021/12/08 06:35:49;;;;;;;;;;;;;;;4.80;100.00;97181.50;5011179;28;19920;-74
2021/12/08 06:38:15;;;;;;;;;;;;;;;4.94;100.00;97191.19;5012093;28;20535;-73
2021/12/08 06:40:46;;;;;;;;;;;;;;;4.94;100.00;97184.34;5011867;28;19917;-74
2021/12/08 06:43:13;;;;;;;;;;;;;;;5.20;100.00;97187.59;4987270;28;20013;-74
2021/12/08 06:45:40;;;;;;;;;;;;;;;4.98;100.00;97177.44;5009244;28;19932;-74
2021/12/08 06:48:07;;;;;;;;;;;;;;;5.16;100.00;97192.00;5010165;28;20248;-73
2021/12/08 06:50:34;;;;;;;;;;;;;;;5.11;100.00;97191.38;5006295;28;19922;-74
2021/12/08 06:53:00;;;;;;;;;;;;;;;4.92;100.00;97193.78;4986849;28;20379;-74
2021/12/08 06:55:27;;;;;;;;;;;;;;;5.07;100.00;97194.09;4987246;28;20020;-74
2021/12/08 06:58:13;;;;;;;;;;;;;;;4.72;100.00;97189.47;4986458;28;20585;-74
2021/12/08 07:01:00;;;;;;;;;;;;;;;4.97;100.00;97185.97;5005532;28;19929;-74
2021/12/08 07:03:34;;;;;;;;;;;;;;;4.63;100.00;97196.59;4991052;28;19917;-73
2021/12/08 07:06:08;;;;;;;;;;;;;;;4.89;100.00;97193.09;5009526;28;20011;-73
2021/12/08 07:08:35;;;;;;;;;;;;;;;4.86;100.00;97196.59;5010689;28;20213;-74
2021/12/08 07:11:02;;;;;;;;;;;;;;;4.96;100.00;97192.78;5011594;28;19917;-72
2021/12/08 07:13:28;;;;;;;;;;;;;;;4.99;100.00;97200.31;4987565;28;19921;-74
2021/12/08 07:16:02;;;;;;;;;;;;;;;4.75;100.00;97203.81;4986085;28;19921;-72
2021/12/08 07:18:30;;;;;;;;;;;;;;;4.91;100.00;97204.06;5005826;28;19917;-73
2021/12/08 07:20:59;;;;;;;;;;;;;;;4.87;100.00;97203.34;5009613;28;19979;-73
2021/12/08 07:23:26;;;;;;;;;;;;;;;4.91;100.00;97202.34;5009459;28;19921;-73
2021/12/08 07:25:54;;;;;;;;;;;;;;;4.92;100.00;97204.00;5007929;28;19917;-74
2021/12/08 07:28:19;;;;;;;;;;;;;;;4.69;100.00;97216.78;4984396;28;19929;-74
2021/12/08 07:31:05;;;;;;;;;;;;;;;4.98;100.00;97211.41;5007463;28;19922;-73
2021/12/08 07:33:31;;;;;;;;;;;;;;;5.18;100.00;97225.13;4993083;28;19921;-73
2021/12/08 07:35:57;;;;;;;;;;;;;;;5.13;100.00;97242.31;4986512;28;19970;-74
2021/12/08 07:38:23;;;;;;;;;;;;;;;4.88;100.00;97243.28;4986346;28;20276;-74
2021/12/08 07:40:50;;;;;;;;;;;;;;;5.23;100.00;97243.66;4987242;28;19928;-72
2021/12/08 07:43:18;;;;;;;;;;;;;;;5.08;100.00;97234.03;4990394;28;19928;-74
2021/12/08 07:45:51;;;;;;;;;;;;;;;5.19;100.00;97231.88;5009712;28;19948;-73
2021/12/08 07:48:29;;;;;;;;;;;;;;;5.23;100.00;97220.69;5005290;28;19933;-73
2021/12/08 07:50:57;;;;;;;;;;;;;;;4.95;100.00;97223.44;5000701;28;19925;-74
2021/12/08 07:53:23;;;;;;;;;;;;;;;4.93;100.00;97228.63;5008421;28;19932;-73
2021/12/08 07:55:50;;;;;;;;;;;;;;;4.84;100.00;97236.63;4969150;28;20658;-73
2021/12/08 07:58:18;;;;;;;;;;;;;;;4.87;100.00;97235.69;5006824;28;19918;-72
2021/12/08 08:00:51;;;;;;;;;;;;;;;5.07;100.00;97243.41;4986689;28;20016;-73
2021/12/08 08:03:17;;;;;;;;;;;;;;;4.96;100.00;97246.34;5006615;28;19980;-73
2021/12/08 08:05:43;;;;;;;;;;;;;;;4.88;100.00;97252.63;5010714;28;19926;-73
2021/12/08 08:08:10;;;;;;;;;;;;;;;4.94;100.00;97253.22;5009466;28;19921;-73
2021/12/08 08:10:40;;;;;;;;;;;;;;;5.13;100.00;97265.28;5011617;28;20306;-73
2021/12/08 08:13:08;;;;;;;;;;;;;;;4.94;100.00;97283.84;5012583;28;20022;-72
2021/12/08 08:15:36;;;;;;;;;;;;;;;4.82;100.00;97286.84;4989210;28;19917;-73
2021/12/08 08:18:06;;;;;;;;;;;;;;;5.06;100.00;97281.72;5009099;28;20112;-73
2021/12/08 08:20:33;;;;;;;;;;;;;;;4.93;100.00;97264.34;4989660;28;19917;-72
2021/12/08 08:22:59;;;;;;;;;;;;;;;5.08;100.00;97270.56;5011854;28;20353;-73
2021/12/08 08:25:26;;;;;;;;;;;;;;;5.17;100.00;97270.22;5008335;28;20011;-73
2021/12/08 08:27:51;;;;;;;;;;;;;;;5.15;100.00;97286.47;4987342;28;19917;-73
2021/12/08 08:30:20;;;;;;;;;;;;;;;5.39;100.00;97285.53;5012155;28;19932;-73
2021/12/08 08:32:49;;;;;;;;;;;;;;;5.09;100.00;97296.94;5011944;28;19921;-73
2021/12/08 08:35:17;;;;;;;;;;;;;;;5.49;100.00;97290.28;4995846;28;19921;-74
2021/12/08 08:37:43;;;;;;;;;;;;;;;5.36;100.00;97292.47;5012011;28;20021;-73
2021/12/08 08:40:12;;;;;;;;;;;;;;;5.54;100.00;97283.28;5012890;28;20020;-73
2021/12/08 08:42:38;;;;;;;;;;;;;;;5.34;100.00;97287.44;4988587;28;20504;-72
2021/12/08 08:45:12;;;;;;;;;;;;;;;5.49;100.00;97291.13;5011038;28;19918;-72
2021/12/08 08:47:46;;;;;;;;;;;;;;;5.73;100.00;97284.22;4988249;28;19928;-73
2021/12/08 08:50:24;;;;;;;;;;;;;;;5.61;100.00;97275.34;4987078;28;19925;-74
2021/12/08 08:52:51;;;;;;;;;;;;;;;5.44;100.00;97275.97;5010099;28;20299;-74
2021/12/08 08:55:22;;;;;;;;;;;;;;;5.64;100.00;97277.75;5010770;28;20682;-73
2021/12/08 08:57:48;;;;;;;;;;;;;;;5.50;100.00;97285.13;4972734;28;20356;-73
2021/12/08 09:00:13;;;;;;;;;;;;;;;5.31;100.00;97287.56;4986927;28;19968;-72
2021/12/08 09:02:39;;;;;;;;;;;;;;;5.30;100.00;97293.56;5012903;28;19921;-73
2021/12/08 09:05:16;;;;;;;;;;;;;;;5.44;100.00;97304.06;4988225;28;20334;-73
2021/12/08 09:07:43;;;;;;;;;;;;;;;5.58;100.00;97305.25;4988317;28;19987;-73
2021/12/08 09:10:10;;;;;;;;;;;;;;;5.62;100.00;97291.47;5011958;28;20117;-73
2021/12/08 09:12:38;;;;;;;;;;;;;;;5.37;100.00;97263.53;4987644;28;20350;-71
2021/12/08 09:15:08;;;;;;;;;;;;;;;5.56;100.00;97266.19;5012261;28;20356;-74
2021/12/08 09:17:35;;;;;;;;;;;;;;;5.79;100.00;97276.31;5016424;28;20330;-74
2021/12/08 09:20:06;;;;;;;;;;;;;;;5.76;100.00;97288.38;5017408;28;19924;-74
2021/12/08 09:22:34;;;;;;;;;;;;;;;5.76;100.00;97275.59;5014384;28;19918;-74
2021/12/08 09:25:14;;;;;;;;;;;;;;;6.16;100.00;97274.84;5016432;28;19971;-74
2021/12/08 09:27:42;;;;;;;;;;;;;;;6.23;100.00;97276.22;4982016;28;20012;-75
2021/12/08 09:30:07;;;;;;;;;;;;;;;5.68;100.00;97280.19;5013150;28;19932;-75
2021/12/08 09:32:39;;;;;;;;;;;;;;;5.89;100.00;97278.50;5014697;28;19913;-74
2021/12/08 09:35:25;;;;;;;;;;;;;;;5.96;100.00;97279.94;5014728;28;19925;-74
2021/12/08 09:37:52;;;;;;;;;;;;;;;6.13;100.00;97274.94;5012728;28;19928;-74
2021/12/08 09:40:27;;;;;;;;;;;;;;;6.30;100.00;97281.91;5014551;28;19917;-74
2021/12/08 09:42:59;;;;;;;;;;;;;;;6.10;100.00;97292.97;4997325;28;20117;-75
2021/12/08 09:45:27;;;;;;;;;;;;;;;6.15;100.00;97308.94;5008530;28;19917;-74
2021/12/08 09:47:53;;;;;;;;;;;;;;;6.12;100.00;97306.53;5014360;28;20411;-74
2021/12/08 09:50:18;;;;;;;;;;;;;;;6.57;100.00;97295.25;5011762;28;19925;-74
2021/12/08 09:52:44;;;;;;;;;;;;;;;6.19;100.00;97290.03;5013586;28;19921;-74
2021/12/08 09:55:12;;;;;;;;;;;;;;;6.18;100.00;97290.09;5013725;28;20449;-75
2021/12/08 09:57:38;;;;;;;;;;;;;;;6.25;100.00;97281.28;5013880;28;20438;-74
2021/12/08 10:00:05;;;;;;;;;;;;;;;6.16;100.00;97277.38;4997378;28;20008;-74
2021/12/08 10:02:33;;;;;;;;;;;;;;;6.21;100.00;97278.03;5013490;28;19924;-74
2021/12/08 10:05:00;;;;;;;;;;;;;;;6.13;100.00;97280.06;5012776;28;20363;-74
2021/12/08 10:07:26;;;;;;;;;;;;;;;6.16;100.00;97266.31;5017143;28;19913;-74
2021/12/08 10:09:51;;;;;;;;;;;;;;;6.00;100.00;97261.03;5014478;28;20371;-75
2021/12/08 10:12:16;;;;;;;;;;;;;;;5.97;100.00;97266.25;5014311;28;19921;-74
2021/12/08 10:14:45;;;;;;;;;;;;;;;6.00;100.00;97272.09;5015141;28;19936;-74
2021/12/08 10:17:11;;;;;;;;;;;;;;;6.24;100.00;97259.97;4998290;28;19914;-74
2021/12/08 10:19:36;;;;;;;;;;;;;;;5.92;100.00;97268.16;5013692;28;20427;-74
2021/12/08 10:22:01;;;;;;;;;;;;;;;6.08;100.00;97274.31;5012759;28;19917;-74
2021/12/08 10:24:28;;;;;;;;;;;;;;;5.93;100.00;97272.34;4998393;28;19925;-74
2021/12/08 10:27:01;;;;;;;;;;;;;;;5.95;100.00;97273.16;5013028;28;19921;-74
2021/12/08 10:29:27;;;;;;;;;;;;;;;5.86;100.00;97280.28;5013247;28;20505;-75
2021/12/08 10:31:53;;;;;;;;;;;;;;;5.81;100.00;97282.16;5011237;28;19921;-75
2021/12/08 10:36:45;;;;;;;;;;;;;;;5.86;100.00;97281.97;4986741;28;20015;-73
2021/12/08 10:39:12;;;;;;;;;;;;;;;5.71;100.00;97291.13;5011838;28;20008;-74
2021/12/08 10:41:56;;;;;;;;;;;;;;;5.63;100.00;97293.13;5013105;28;19917;-74
2021/12/08 10:44:23;;;;;;;;;;;;;;;5.85;100.00;97288.81;5012462;28;19931;-74
2021/12/08 10:46:50;;;;;;;;;;;;;;;5.51;100.00;97273.19;5013577;28;19925;-74
2021/12/08 10:49:23;;;;;;;;;;;;;;;5.75;100.00;97281.63;5014972;28;20269;-74
2021/12/08 10:54:33;;;;;;;;;;;;;;;5.80;100.00;97277.16;5013095;28;20895;-74
2021/12/08 10:56:59;;;;;;;;;;;;;;;5.91;100.00;97279.25;4995592;28;19921;-74
2021/12/08 10:59:26;;;;;;;;;;;;;;;6.21;100.00;97300.19;4989756;28;19917;-74
2021/12/08 11:01:52;;;;;;;;;;;;;;;5.76;100.00;97298.59;5012472;28;19953;-74
2021/12/08 11:04:19;;;;;;;;;;;;;;;6.14;100.00;97301.34;5010562;28;19913;-74
2021/12/08 11:06:44;;;;;;;;;;;;;;;6.20;100.00;97296.81;4991132;28;19971;-75
2021/12/08 11:09:18;;;;;;;;;;;;;;;5.48;100.00;97299.69;5011215;28;19926;-74
2021/12/08 11:11:44;;;;;;;;;;;;;;;5.85;100.00;97299.03;5008719;28;20639;-74
2021/12/08 11:14:11;;;;;;;;;;;;;;;5.97;100.00;97291.81;4994722;28;20514;-74
2021/12/08 11:16:39;;;;;;;;;;;;;;;5.86;100.00;97289.66;5012930;28;19957;-74
2021/12/08 11:19:09;;;;;;;;;;;;;;;6.11;100.00;97296.34;5013761;28;19924;-74
2021/12/08 11:21:37;;;;;;;;;;;;;;;6.19;100.00;97286.66;4992092;28;19921;-74
2021/12/08 11:24:11;;;;;;;;;;;;;;;6.19;100.00;97273.88;5012719;28;19997;-74
2021/12/08 11:26:38;;;;;;;;;;;;;;;6.21;100.00;97285.69;5012625;28;19920;-74
2021/12/08 11:29:05;;;;;;;;;;;;;;;6.11;100.00;97292.06;5008813;28;20012;-74
2021/12/08 11:31:35;;;;;;;;;;;;;;;6.11;100.00;97294.63;5008816;28;20012;-73
2021/12/08 11:34:04;;;;;;;;;;;;;;;6.10;100.00;97298.09;5009818;28;20387;-74
2021/12/08 11:36:30;;;;;;;;;;;;;;;6.09;100.00;97296.44;4995920;28;20395;-73
2021/12/08 11:38:56;;;;;;;;;;;;;;;6.12;100.00;97303.13;4991293;28;20012;-74
2021/12/08 11:41:24;;;;;;;;;;;;;;;6.03;100.00;97299.22;5012531;28;20052;-74
2021/12/08 11:43:54;;;;;;;;;;;;;;;6.02;100.00;97302.66;4990688;28;20121;-74
2021/12/08 11:46:19;;;;;;;;;;;;;;;6.17;100.00;97303.78;5012491;28;19939;-74
2021/12/08 11:48:53;;;;;;;;;;;;;;;6.03;100.00;97309.44;5013574;28;20483;-74
2021/12/08 11:51:19;;;;;;;;;;;;;;;5.98;100.00;97319.03;4973304;28;20653;-74
2021/12/08 11:53:44;;;;;;;;;;;;;;;6.13;100.00;97315.84;4987942;28;19925;-74
2021/12/08 11:56:28;;;;;;;;;;;;;;;6.42;100.00;97309.50;4980972;28;19933;-74
2021/12/08 11:58:54;;;;;;;;;;;;;;;6.29;100.00;97308.34;4972281;28;20421;-74
2021/12/08 12:01:20;;;;;;;;;;;;;;;6.34;100.00;97300.50;4981489;28;20000;-74
2021/12/08 12:03:45;;;;;;;;;;;;;;;6.27;100.00;97305.88;4971584;28;19989;-74
2021/12/08 12:06:10;;;;;;;;;;;;;;;6.22;100.00;97310.34;4982098;28;19914;-74
2021/12/08 12:08:36;;;;;;;;;;;;;;;6.04;100.00;97309.41;4991022;28;20047;-74
2021/12/08 12:11:02;;;;;;;;;;;;;;;6.52;100.00;97315.06;4971942;28;20036;-74
2021/12/08 12:13:28;;;;;;;;;;;;;;;6.55;100.00;97311.56;4970926;28;19922;-74
2021/12/08 12:15:53;;;;;;;;;;;;;;;6.56;100.00;97308.91;4982529;28;19928;-74
2021/12/08 12:18:20;;;;;;;;;;;;;;;6.55;100.00;97306.44;4990154;28;19951;-74
2021/12/08 12:20:46;;;;;;;;;;;;;;;6.44;100.00;97296.66;4992527;28;20430;-74
2021/12/08 12:23:30;;;;;;;;;;;;;;;6.38;100.00;97296.91;4989104;28;20411;-74
2021/12/08 12:25:59;;;;;;;;;;;;;;;6.51;100.00;97295.50;4983979;28;20016;-74
2021/12/08 12:28:24;;;;;;;;;;;;;;;6.65;100.00;97285.50;4993063;28;19983;-74
2021/12/08 12:31:06;;;;;;;;;;;;;;;6.79;100.00;97286.63;4993091;28;20378;-74
2021/12/08 12:33:42;;;;;;;;;;;;;;;6.89;100.00;97283.59;4996935;28;19953;-74
2021/12/08 12:36:17;;;;;;;;;;;;;;;6.71;100.00;97281.84;4974229;28;19922;-74
2021/12/08 12:38:42;;;;;;;;;;;;;;;6.80;100.00;97283.19;4975053;28;19922;-74
2021/12/08 12:41:09;;;;;;;;;;;;;;;6.82;100.00;97286.47;4990763;28;20269;-74
2021/12/08 12:43:37;;;;;;;;;;;;;;;6.75;100.00;97285.94;4973365;28;19913;-74
2021/12/08 12:46:07;;;;;;;;;;;;;;;6.59;100.00;97279.81;4995057;28;19957;-74
2021/12/08 12:48:33;;;;;;;;;;;;;;;6.54;100.00;97285.13;4974399;28;19933;-74
2021/12/08 12:51:07;;;;;;;;;;;;;;;6.63;100.00;97287.28;4999431;28;20382;-74
2021/12/08 12:53:39;;;;;;;;;;;;;;;6.86;100.00;97282.88;5017436;28;19913;-74
2021/12/08 12:56:08;;;;;;;;;;;;;;;6.73;100.00;97286.88;5022038;28;19924;-74
2021/12/08 12:58:44;;;;;;;;;;;;;;;7.03;100.00;97277.84;5022598;28;19924;-74
2021/12/08 13:01:11;;;;;;;;;;;;;;;6.95;100.00;97267.13;5020072;28;19954;-75
2021/12/08 13:03:37;;;;;;;;;;;;;;;6.81;100.00;97279.72;5005402;28;19913;-74
2021/12/08 13:06:03;;;;;;;;;;;;;;;6.72;100.00;97272.44;4998959;28;19998;-74
2021/12/08 13:08:30;;;;;;;;;;;;;;;7.04;100.00;97273.56;5021246;28;20375;-74
2021/12/08 13:10:56;;;;;;;;;;;;;;;6.93;100.00;97263.81;5020887;28;19913;-74
2021/12/08 13:13:22;;;;;;;;;;;;;;;7.08;100.00;97267.41;5021410;28;20291;-74
2021/12/08 13:15:47;;;;;;;;;;;;;;;6.99;100.00;97271.22;5022187;28;20451;-74
2021/12/08 13:18:13;;;;;;;;;;;;;;;7.29;100.00;97273.25;4981278;28;19970;-74
2021/12/08 13:20:54;;;;;;;;;;;;;;;6.64;100.00;97272.78;4999780;28;19918;-74
2021/12/08 13:23:22;;;;;;;;;;;;;;;6.87;100.00;97274.34;5020786;28;20418;-74
2021/12/08 13:28:20;;;;;;;;;;;;;;;6.64;100.00;97258.28;5021048;28;19922;-75
2021/12/08 13:30:48;;;;;;;;;;;;;;;6.65;100.00;97265.03;5016208;28;19975;-75
2021/12/08 13:33:29;;;;;;;;;;;;;;;6.79;100.00;97271.28;5012529;28;20025;-75
2021/12/08 13:35:55;;;;;;;;;;;;;;;6.79;100.00;97273.81;4999927;28;19917;-75